Time;durP1;ratioP1;P1;durP2;ratioP2;P2;SDS_P1;SDS_P2;PMS_P1;PMS_P2;Temp;Humidity;BMP_temperature;BMP_pressure;BME280_temperature;BME280_humidity;BME280_pressure;Samples;Min_cycle;Max_cycle;Signal;HPM_P1;HPM_P2
2022/08/01 00:01:50;;;;;;;37.75;11.98;;;17.40;99.90;;;;;;5007270;28;20412;-39
2022/08/01 00:04:16;;;;;;;48.45;11.75;;;17.40;99.90;;;;;;5007014;28;20092;-39
2022/08/01 00:06:42;;;;;;;60.47;13.02;;;17.40;99.90;;;;;;5007459;28;20041;-39
2022/08/01 00:09:07;;;;;;;60.38;13.40;;;17.50;99.90;;;;;;5007068;28;20045;-39
2022/08/01 00:11:33;;;;;;;42.78;10.70;;;17.30;99.90;;;;;;5006871;28;20124;-39
2022/08/01 00:13:59;;;;;;;47.65;11.45;;;17.30;99.90;;;;;;5006408;28;20058;-39
2022/08/01 00:16:24;;;;;;;50.47;11.60;;;17.40;99.90;;;;;;5006669;28;20095;-39
2022/08/01 00:18:51;;;;;;;59.60;12.68;;;17.30;99.90;;;;;;5006807;28;20040;-39
2022/08/01 00:21:17;;;;;;;35.80;9.93;;;17.20;99.90;;;;;;5007080;28;20076;-39
2022/08/01 00:23:45;;;;;;;36.30;9.15;;;17.20;99.90;;;;;;5006968;28;20042;-39
2022/08/01 00:26:14;;;;;;;51.42;11.52;;;17.10;99.90;;;;;;5006317;28;20045;-39
2022/08/01 00:28:40;;;;;;;43.42;10.95;;;17.10;99.90;;;;;;5007109;28;20069;-40
2022/08/01 00:31:06;;;;;;;29.20;10.32;;;17.10;99.90;;;;;;5006796;28;20052;-39
2022/08/01 00:33:31;;;;;;;55.50;12.32;;;17.10;99.90;;;;;;5007050;28;20041;-40
2022/08/01 00:35:57;;;;;;;50.53;11.20;;;17.00;99.90;;;;;;5005312;28;20063;-40
2022/08/01 00:38:23;;;;;;;49.50;11.85;;;15.80;99.90;;;;;;5005692;28;20104;-39
2022/08/01 00:40:50;;;;;;;51.65;12.40;;;17.00;99.90;;;;;;5005643;28;20049;-39
2022/08/01 00:43:15;;;;;;;56.45;11.30;;;17.00;99.90;;;;;;5005402;28;20052;-41
2022/08/01 00:45:41;;;;;;;53.15;11.68;;;17.00;99.90;;;;;;5005233;28;20042;-39
2022/08/01 00:48:07;;;;;;;51.35;12.00;;;17.00;99.90;;;;;;5005338;28;20452;-39
2022/08/01 00:50:33;;;;;;;72.25;13.88;;;16.90;99.90;;;;;;5005351;28;20073;-39
2022/08/01 00:53:00;;;;;;;53.22;12.45;;;17.00;99.90;;;;;;5005396;28;20125;-39
2022/08/01 00:55:28;;;;;;;36.38;10.85;;;16.90;99.90;;;;;;5005630;28;20058;-40
2022/08/01 00:57:54;;;;;;;35.63;10.25;;;17.00;99.90;;;;;;5005490;28;20034;-39
2022/08/01 01:00:20;;;;;;;36.15;10.85;;;17.00;99.90;;;;;;5006401;28;20046;-39
2022/08/01 01:02:45;;;;;;;47.13;12.60;;;17.00;99.90;;;;;;5006662;28;20052;-39
2022/08/01 01:05:11;;;;;;;41.00;11.02;;;17.00;99.90;;;;;;5006494;28;20091;-39
2022/08/01 01:08:05;;;;;;;39.38;12.10;;;17.00;99.90;;;;;;5006550;28;20073;-39
2022/08/01 01:10:54;;;;;;;39.60;11.60;;;17.00;99.90;;;;;;5006246;28;20046;-39
2022/08/01 01:13:40;;;;;;;45.90;11.73;;;17.00;99.90;;;;;;5005771;28;20459;-39
2022/08/01 01:16:11;;;;;;;57.45;12.18;;;17.10;99.90;;;;;;5005984;28;20484;-39
2022/08/01 01:18:53;;;;;;;52.15;12.93;;;17.00;99.90;;;;;;5006760;28;20824;-39
2022/08/01 01:21:18;;;;;;;49.65;12.85;;;17.10;99.90;;;;;;5007020;28;20049;-39
2022/08/01 01:24:15;;;;;;;75.22;16.15;;;17.10;99.90;;;;;;5006879;28;20165;-39
2022/08/01 01:27:24;;;;;;;53.95;13.45;;;17.10;99.90;;;;;;5006237;28;20042;-39
2022/08/01 01:29:55;;;;;;;65.43;14.93;;;17.10;99.90;;;;;;5006492;28;20060;-39
2022/08/01 01:32:27;;;;;;;98.20;15.57;;;17.10;99.90;;;;;;5005830;28;20507;-39
2022/08/01 01:34:54;;;;;;;70.15;14.82;;;17.10;99.90;;;;;;5006076;28;20050;-39
2022/08/01 01:37:24;;;;;;;34.03;11.50;;;17.10;99.90;;;;;;5005940;28;20038;-39
2022/08/01 01:39:52;;;;;;;41.90;11.80;;;17.00;99.90;;;;;;5006168;28;20038;-39
2022/08/01 01:42:19;;;;;;;33.90;11.30;;;17.10;99.90;;;;;;5006322;28;20045;-39
2022/08/01 01:44:46;;;;;;;59.35;12.60;;;17.10;99.90;;;;;;5006167;28;20041;-39
2022/08/01 01:47:13;;;;;;;75.32;13.40;;;17.10;99.90;;;;;;5007013;28;20065;-39
2022/08/01 01:49:41;;;;;;;46.95;11.70;;;17.10;99.90;;;;;;5009774;28;20050;-39
2022/08/01 01:52:08;;;;;;;48.17;11.43;;;17.10;99.90;;;;;;5009246;28;20221;-39
2022/08/01 01:54:40;;;;;;;46.53;12.30;;;17.10;99.90;;;;;;5009463;28;20158;-39
2022/08/01 01:57:07;;;;;;;16.33;7.65;;;17.10;99.90;;;;;;5009300;28;20113;-39
2022/08/01 01:59:36;;;;;;;35.67;10.27;;;17.10;99.90;;;;;;5009456;28;20385;-39
2022/08/01 02:02:05;;;;;;;22.00;8.90;;;17.10;99.90;;;;;;5009594;28;20099;-39
2022/08/01 02:04:32;;;;;;;21.58;8.93;;;17.10;99.90;;;;;;5009995;28;20429;-39
2022/08/01 02:07:00;;;;;;;54.67;11.98;;;17.10;99.90;;;;;;5009690;28;20400;-38
2022/08/01 02:09:28;;;;;;;55.45;12.93;;;17.10;99.90;;;;;;5009473;28;20048;-39
2022/08/01 02:11:55;;;;;;;30.83;10.38;;;17.10;99.90;;;;;;5009217;28;20084;-39
2022/08/01 02:14:23;;;;;;;32.20;10.38;;;17.10;99.90;;;;;;5009055;28;20057;-39
2022/08/01 02:16:50;;;;;;;15.23;7.53;;;17.10;99.90;;;;;;5009118;28;20056;-39
2022/08/01 02:19:19;;;;;;;46.38;11.07;;;17.10;99.90;;;;;;5009167;28;20124;-38
2022/08/01 02:21:54;;;;;;;13.88;7.32;;;17.10;99.90;;;;;;5009544;28;20042;-39
2022/08/01 02:24:36;;;;;;;43.85;12.52;;;17.00;99.90;;;;;;5009150;28;20049;-39
2022/08/01 02:27:07;;;;;;;26.13;8.75;;;17.00;99.90;;;;;;5008996;28;20042;-38
2022/08/01 02:29:39;;;;;;;44.78;11.68;;;17.00;99.90;;;;;;5008705;28;20103;-39
2022/08/01 02:32:07;;;;;;;18.52;7.40;;;17.00;99.90;;;;;;5008800;28;20064;-38
2022/08/01 02:34:35;;;;;;;8.90;4.63;;;17.00;99.90;;;;;;5008730;28;20411;-39
2022/08/01 02:37:02;;;;;;;10.23;4.60;;;17.00;99.90;;;;;;5009002;28;20487;-39
2022/08/01 02:39:31;;;;;;;16.35;6.68;;;17.00;99.90;;;;;;5007684;28;20435;-39
2022/08/01 02:42:03;;;;;;;35.47;8.85;;;16.90;99.90;;;;;;5008657;28;20040;-39
2022/08/01 02:44:37;;;;;;;14.48;4.97;;;16.80;99.90;;;;;;5008457;28;20049;-39
2022/08/01 02:47:04;;;;;;;21.35;6.80;;;16.90;99.90;;;;;;5008518;28;20722;-38
2022/08/01 02:49:34;;;;;;;13.48;4.38;;;16.80;99.90;;;;;;5008923;28;20308;-39
2022/08/01 02:52:06;;;;;;;8.23;4.68;;;16.80;99.90;;;;;;5008844;28;20139;-39
2022/08/01 02:54:33;;;;;;;4.93;3.30;;;16.80;99.90;;;;;;5007867;28;20121;-39
2022/08/01 02:57:01;;;;;;;11.77;4.30;;;17.10;99.90;;;;;;5008390;28;20042;-39
2022/08/01 02:59:29;;;;;;;26.83;5.80;;;16.80;99.90;;;;;;5007242;28;20045;-39
2022/08/01 03:01:56;;;;;;;23.50;6.78;;;16.70;99.90;;;;;;5008099;28;20338;-39
2022/08/01 03:04:26;;;;;;;19.70;6.15;;;16.90;99.90;;;;;;5008174;28;20099;-39
2022/08/01 03:06:54;;;;;;;7.43;3.40;;;16.70;99.90;;;;;;5008247;28;20042;-39
2022/08/01 03:09:21;;;;;;;13.38;3.85;;;16.70;99.90;;;;;;5008171;28;20415;-39
2022/08/01 03:11:48;;;;;;;20.40;5.35;;;16.60;99.90;;;;;;5007688;28;20049;-39
2022/08/01 03:14:15;;;;;;;13.57;4.38;;;16.60;99.90;;;;;;5007945;28;20377;-39
2022/08/01 03:16:44;;;;;;;8.23;3.63;;;16.60;99.90;;;;;;5008177;28;20046;-39
2022/08/01 03:19:12;;;;;;;23.58;4.75;;;16.80;99.90;;;;;;5008434;28;20084;-39
2022/08/01 03:21:40;;;;;;;10.90;3.60;;;16.60;99.90;;;;;;5007842;28;20037;-38
2022/08/01 03:24:07;;;;;;;11.43;3.42;;;16.40;99.90;;;;;;5007926;28;20073;-39
2022/08/01 03:26:35;;;;;;;7.80;2.67;;;16.50;99.90;;;;;;5007881;28;20045;-39
2022/08/01 03:29:09;;;;;;;11.05;3.78;;;16.50;99.90;;;;;;5008022;28;20458;-39
2022/08/01 03:31:37;;;;;;;17.75;4.75;;;16.70;99.90;;;;;;5007804;28;20057;-39
2022/08/01 03:34:04;;;;;;;10.38;3.08;;;16.40;99.90;;;;;;5007777;28;20042;-39
2022/08/01 03:36:32;;;;;;;13.52;3.08;;;16.40;99.90;;;;;;5007514;28;20104;-38
2022/08/01 03:39:02;;;;;;;12.30;3.33;;;16.60;99.90;;;;;;5007484;28;20124;-39
2022/08/01 03:41:33;;;;;;;11.10;2.78;;;16.30;99.90;;;;;;5007596;28;20034;-39
2022/08/01 03:44:07;;;;;;;6.60;2.28;;;16.30;99.90;;;;;;5007998;28;20341;-39
2022/08/01 03:46:42;;;;;;;22.73;4.93;;;16.30;99.90;;;;;;5007664;28;20058;-39
2022/08/01 03:49:13;;;;;;;12.27;3.45;;;16.30;99.90;;;;;;5007365;28;20049;-39
2022/08/01 03:51:39;;;;;;;13.73;4.60;;;16.20;99.90;;;;;;5007479;28;20480;-39
2022/08/01 03:54:06;;;;;;;19.83;5.10;;;16.40;99.90;;;;;;5007589;28;20053;-39
2022/08/01 03:56:32;;;;;;;19.33;5.13;;;16.20;99.90;;;;;;5007183;28;20045;-39
2022/08/01 03:59:03;;;;;;;11.27;3.28;;;16.20;99.90;;;;;;5006502;28;20381;-39
2022/08/01 04:01:31;;;;;;;12.70;3.67;;;16.20;99.90;;;;;;5007263;28;20046;-38
2022/08/01 04:03:59;;;;;;;18.10;4.00;;;16.20;99.90;;;;;;5006954;28;20045;-39
2022/08/01 04:06:25;;;;;;;24.00;5.30;;;16.40;99.90;;;;;;5007017;28;20049;-39
2022/08/01 04:08:57;;;;;;;11.88;3.40;;;16.20;99.90;;;;;;5007000;28;20106;-39
2022/08/01 04:11:27;;;;;;;15.02;2.97;;;16.20;99.90;;;;;;5006888;28;20598;-39
2022/08/01 04:13:54;;;;;;;10.57;3.20;;;16.20;99.90;;;;;;5006654;28;20336;-39
2022/08/01 04:16:20;;;;;;;15.52;4.43;;;16.20;99.90;;;;;;5006908;28;20050;-39
2022/08/01 04:18:46;;;;;;;18.10;4.63;;;16.10;99.90;;;;;;5006609;28;20046;-39
2022/08/01 04:21:13;;;;;;;15.52;4.50;;;16.10;99.90;;;;;;5007057;28;20041;-39
2022/08/01 04:23:43;;;;;;;13.60;3.85;;;16.10;99.90;;;;;;5006437;28;20049;-38
2022/08/01 04:26:10;;;;;;;12.68;3.55;;;16.10;99.90;;;;;;5006787;28;20049;-39
2022/08/01 04:28:37;;;;;;;13.85;3.92;;;16.10;99.90;;;;;;5006054;28;20041;-39
2022/08/01 04:31:09;;;;;;;13.90;4.25;;;16.10;99.90;;;;;;5006802;28;20053;-39
2022/08/01 04:33:36;;;;;;;14.73;4.25;;;16.20;99.90;;;;;;5006269;28;20500;-39
2022/08/01 04:36:04;;;;;;;12.25;3.72;;;16.20;99.90;;;;;;5006600;28;20490;-38
2022/08/01 04:38:33;;;;;;;25.98;5.60;;;16.20;99.90;;;;;;5005928;28;20522;-39
2022/08/01 04:41:01;;;;;;;11.60;3.90;;;16.40;99.90;;;;;;5006520;28;20046;-39
2022/08/01 04:43:26;;;;;;;18.48;4.00;;;16.30;99.90;;;;;;5006423;28;20045;-39
2022/08/01 04:45:53;;;;;;;14.10;3.55;;;16.40;99.90;;;;;;5006435;28;20116;-39
2022/08/01 04:48:20;;;;;;;11.55;3.30;;;17.00;99.90;;;;;;5006647;28;20455;-39
2022/08/01 04:50:46;;;;;;;15.90;4.63;;;16.70;99.90;;;;;;5006923;28;20478;-39
2022/08/01 04:53:14;;;;;;;14.55;3.58;;;16.40;99.90;;;;;;5006713;28;20408;-39
2022/08/01 04:55:40;;;;;;;15.05;3.33;;;16.40;99.90;;;;;;5006300;28;20052;-39
2022/08/01 04:58:05;;;;;;;11.55;3.63;;;16.40;99.90;;;;;;5006935;28;20396;-39
2022/08/01 05:00:33;;;;;;;18.52;4.13;;;16.40;99.90;;;;;;5006702;28;20476;-39
2022/08/01 05:02:59;;;;;;;15.63;4.15;;;16.40;99.90;;;;;;5006963;28;20053;-39
2022/08/01 05:05:26;;;;;;;18.45;4.20;;;16.40;99.90;;;;;;5006394;28;20053;-39
2022/08/01 05:07:51;;;;;;;10.70;2.78;;;16.30;99.90;;;;;;5006210;28;20041;-39
2022/08/01 05:10:17;;;;;;;13.13;3.17;;;16.60;99.90;;;;;;5006555;28;20064;-39
2022/08/01 05:12:43;;;;;;;13.93;3.80;;;16.30;99.90;;;;;;5006031;28;20369;-39
2022/08/01 05:15:08;;;;;;;15.52;3.22;;;16.50;99.90;;;;;;5006574;28;20488;-39
2022/08/01 05:17:34;;;;;;;15.77;3.25;;;16.20;99.90;;;;;;5006161;28;20046;-39
2022/08/01 05:20:00;;;;;;;13.02;3.10;;;16.20;99.90;;;;;;5006185;28;20446;-39
2022/08/01 05:22:26;;;;;;;19.15;4.00;;;16.20;99.90;;;;;;5007830;28;20049;-39
2022/08/01 05:24:52;;;;;;;11.75;3.13;;;16.20;99.90;;;;;;5010125;28;20073;-39
2022/08/01 05:27:18;;;;;;;14.38;3.00;;;16.20;99.90;;;;;;5010222;28;20467;-39
2022/08/01 05:29:44;;;;;;;17.27;3.45;;;16.20;99.90;;;;;;5009588;28;20041;-39
2022/08/01 05:32:10;;;;;;;16.60;3.70;;;16.20;99.90;;;;;;5010108;28;20128;-39
2022/08/01 05:34:35;;;;;;;17.58;3.42;;;16.50;99.90;;;;;;5009756;28;20049;-39
2022/08/01 05:37:01;;;;;;;17.63;2.92;;;16.30;99.90;;;;;;5009663;28;20618;-39
2022/08/01 05:39:27;;;;;;;7.70;2.53;;;16.30;99.90;;;;;;5024894;28;20104;-39
2022/08/01 05:41:53;;;;;;;13.00;2.80;;;16.30;99.90;;;;;;5009438;28;20468;-39
2022/08/01 05:44:18;;;;;;;18.63;2.65;;;16.40;99.90;;;;;;5009787;28;20037;-40
2022/08/01 05:46:44;;;;;;;11.60;2.95;;;16.40;99.90;;;;;;5009700;28;20124;-39
2022/08/01 05:49:10;;;;;;;12.63;2.60;;;16.40;99.90;;;;;;5009753;28;20092;-39
2022/08/01 05:51:35;;;;;;;20.58;3.13;;;16.50;99.90;;;;;;5009635;28;20049;-39
2022/08/01 05:54:02;;;;;;;12.20;2.45;;;16.40;99.90;;;;;;5010077;28;20148;-39
2022/08/01 05:56:28;;;;;;;23.23;3.55;;;16.40;99.90;;;;;;5009976;28;20056;-39
2022/08/01 05:58:53;;;;;;;16.20;3.05;;;16.40;99.90;;;;;;5009297;28;20041;-39
2022/08/01 06:01:19;;;;;;;14.18;2.03;;;16.40;99.90;;;;;;5024292;28;20048;-39
2022/08/01 06:03:45;;;;;;;14.95;3.13;;;16.40;99.90;;;;;;5009202;28;20100;-39
2022/08/01 06:06:11;;;;;;;16.20;2.53;;;16.50;99.90;;;;;;5008932;28;20121;-39
2022/08/01 06:08:37;;;;;;;17.10;2.80;;;16.50;99.90;;;;;;5009118;28;20042;-39
2022/08/01 06:11:02;;;;;;;19.50;3.22;;;16.50;99.90;;;;;;5009846;28;20053;-39
2022/08/01 06:13:28;;;;;;;18.80;3.40;;;16.60;99.90;;;;;;5008709;28;20447;-39
2022/08/01 06:15:54;;;;;;;22.67;3.45;;;16.70;99.90;;;;;;5008845;28;20141;-39
2022/08/01 06:18:20;;;;;;;30.23;3.95;;;16.70;99.90;;;;;;5008853;28;20037;-39
2022/08/01 06:20:46;;;;;;;19.85;3.30;;;16.70;99.90;;;;;;5007436;28;20046;-39
2022/08/01 06:23:13;;;;;;;12.68;2.72;;;16.80;99.90;;;;;;5008839;28;20042;-39
2022/08/01 06:25:38;;;;;;;18.13;2.47;;;16.80;99.90;;;;;;5008922;28;20065;-39
2022/08/01 06:28:04;;;;;;;15.27;2.95;;;16.90;99.90;;;;;;5007025;28;20053;-39
2022/08/01 06:30:30;;;;;;;23.88;3.10;;;17.00;99.90;;;;;;5008604;28;20054;-39
2022/08/01 06:32:58;;;;;;;16.73;3.47;;;17.00;99.90;;;;;;5007854;28;20100;-39
2022/08/01 06:35:24;;;;;;;23.70;3.50;;;17.00;99.90;;;;;;5006197;28;20049;-39
2022/08/01 06:37:50;;;;;;;20.65;3.38;;;17.00;99.90;;;;;;5008407;28;20119;-39
2022/08/01 06:40:15;;;;;;;17.60;3.50;;;17.00;99.90;;;;;;5008606;28;20488;-40
2022/08/01 06:42:41;;;;;;;15.43;2.50;;;17.10;99.90;;;;;;5008790;28;20380;-39
2022/08/01 06:45:12;;;;;;;15.80;2.53;;;17.10;99.90;;;;;;5008440;28;20041;-39
2022/08/01 06:47:39;;;;;;;14.15;3.10;;;17.20;99.90;;;;;;5008345;28;20492;-40
2022/08/01 06:50:06;;;;;;;20.17;3.00;;;17.20;99.90;;;;;;5006651;28;20056;-40
2022/08/01 06:52:32;;;;;;;16.75;2.40;;;17.30;99.90;;;;;;5008445;28;20053;-39
2022/08/01 06:54:58;;;;;;;10.75;2.53;;;17.30;99.90;;;;;;5008000;28;20050;-39
2022/08/01 06:57:23;;;;;;;19.27;3.30;;;17.40;99.90;;;;;;5007780;28;20053;-39
2022/08/01 06:59:49;;;;;;;11.30;2.72;;;17.40;99.90;;;;;;5007775;28;20042;-39
2022/08/01 07:02:15;;;;;;;14.80;2.22;;;17.50;99.90;;;;;;5008027;28;20053;-39
2022/08/01 07:04:40;;;;;;;15.45;2.38;;;17.50;99.90;;;;;;5008007;28;20046;-39
2022/08/01 07:07:06;;;;;;;12.63;2.83;;;17.50;99.90;;;;;;5008061;28;20069;-39
2022/08/01 07:09:32;;;;;;;10.27;2.25;;;17.50;99.90;;;;;;5007910;28;20543;-39
2022/08/01 07:11:58;;;;;;;15.07;2.55;;;17.60;99.90;;;;;;5007405;28;20038;-39
2022/08/01 07:14:23;;;;;;;18.65;3.08;;;17.60;99.90;;;;;;5007718;28;20089;-39
2022/08/01 07:16:49;;;;;;;12.15;2.47;;;17.60;99.90;;;;;;5007129;28;20049;-39
2022/08/01 07:19:15;;;;;;;7.90;2.08;;;17.70;99.90;;;;;;5007321;28;20050;-39
2022/08/01 07:21:42;;;;;;;14.43;3.45;;;17.80;99.90;;;;;;5007450;28;20080;-39
2022/08/01 07:24:10;;;;;;;11.10;2.08;;;17.80;99.90;;;;;;5007486;28;20069;-39
2022/08/01 07:26:35;;;;;;;22.40;3.97;;;17.80;99.90;;;;;;5007820;28;20107;-40
2022/08/01 07:29:02;;;;;;;16.50;2.72;;;17.90;99.90;;;;;;5007300;28;20038;-39
2022/08/01 07:31:28;;;;;;;10.45;2.05;;;17.90;99.90;;;;;;5007400;28;20103;-39
2022/08/01 07:33:54;;;;;;;14.43;2.53;;;17.90;99.90;;;;;;5007335;28;20076;-39
2022/08/01 07:36:20;;;;;;;18.45;2.88;;;18.00;99.90;;;;;;5007949;28;20077;-39
2022/08/01 07:38:47;;;;;;;15.60;2.17;;;18.00;99.90;;;;;;5007622;28;20034;-39
2022/08/01 07:41:13;;;;;;;10.75;2.30;;;18.10;99.90;;;;;;5007422;28;20846;-39
2022/08/01 07:43:39;;;;;;;11.85;2.22;;;18.00;99.90;;;;;;5007248;28;20073;-39
2022/08/01 07:46:05;;;;;;;11.98;1.95;;;18.10;99.90;;;;;;5006886;28;20104;-39
2022/08/01 07:48:31;;;;;;;14.90;2.53;;;18.20;99.90;;;;;;5007418;28;20037;-39
2022/08/01 07:50:57;;;;;;;10.75;2.03;;;18.30;99.90;;;;;;5006414;28;20129;-39
2022/08/01 07:53:22;;;;;;;15.57;2.97;;;18.40;99.90;;;;;;5007155;28;20056;-39
2022/08/01 07:55:48;;;;;;;11.75;2.22;;;18.40;99.90;;;;;;5006665;28;20050;-40
2022/08/01 07:58:15;;;;;;;12.60;2.10;;;18.50;99.90;;;;;;5006517;28;20045;-39
2022/08/01 08:00:40;;;;;;;10.77;1.83;;;18.70;99.90;;;;;;5007205;28;20041;-39
2022/08/01 08:03:06;;;;;;;11.13;2.30;;;18.80;99.90;;;;;;5006351;28;20304;-40
2022/08/01 08:05:34;;;;;;;9.00;1.55;;;19.10;99.90;;;;;;5006748;28;20034;-39
2022/08/01 08:08:04;;;;;;;8.60;1.92;;;19.30;99.90;;;;;;5006631;28;20049;-39
2022/08/01 08:10:30;;;;;;;12.07;2.70;;;19.60;99.90;;;;;;5006263;28;20041;-39
2022/08/01 08:12:56;;;;;;;8.18;1.80;;;20.00;99.90;;;;;;5005979;28;20072;-39
2022/08/01 08:15:21;;;;;;;9.25;2.08;;;20.20;99.90;;;;;;5006418;28;20046;-39
2022/08/01 08:17:47;;;;;;;13.25;2.45;;;20.50;99.90;;;;;;5006832;28;20038;-41
2022/08/01 08:20:13;;;;;;;10.02;1.60;;;20.80;99.90;;;;;;5006860;28;20460;-40
2022/08/01 08:22:38;;;;;;;10.68;1.55;;;21.10;99.90;;;;;;5006322;28;20581;-39
2022/08/01 08:25:05;;;;;;;9.60;1.45;;;21.40;99.90;;;;;;5006112;28;20042;-39
2022/08/01 08:27:31;;;;;;;12.32;1.88;;;21.80;99.90;;;;;;5006272;28;20492;-40
2022/08/01 08:29:56;;;;;;;12.13;1.75;;;22.10;99.90;;;;;;5005544;28;20042;-39
2022/08/01 08:32:22;;;;;;;12.18;2.25;;;22.30;99.90;;;;;;5006613;28;20411;-40
2022/08/01 08:34:47;;;;;;;11.90;1.42;;;22.60;99.90;;;;;;5006489;28;20073;-39
2022/08/01 08:37:13;;;;;;;9.15;1.58;;;22.80;99.90;;;;;;5006824;28;20053;-39
2022/08/01 08:39:39;;;;;;;7.55;1.35;;;22.90;99.90;;;;;;5005933;28;20057;-39
2022/08/01 08:42:07;;;;;;;9.15;1.45;;;23.00;99.90;;;;;;5006061;28;20089;-40
2022/08/01 08:44:33;;;;;;;12.55;1.45;;;23.00;99.90;;;;;;5005873;28;20100;-39
2022/08/01 08:47:01;;;;;;;6.88;1.30;;;23.00;99.90;;;;;;5006044;28;20037;-40
2022/08/01 08:49:28;;;;;;;5.90;1.08;;;23.10;99.90;;;;;;5006316;28;20080;-40
2022/08/01 08:51:59;;;;;;;11.77;1.60;;;23.80;99.90;;;;;;5006738;28;20408;-40
2022/08/01 08:54:26;;;;;;;10.98;1.60;;;24.40;99.50;;;;;;5006683;28;20050;-39
2022/08/01 08:56:53;;;;;;;5.22;1.20;;;25.80;99.20;;;;;;5007936;28;20061;-39
2022/08/01 08:59:19;;;;;;;9.77;1.40;;;27.50;94.70;;;;;;5010921;28;20480;-40
2022/08/01 09:01:45;;;;;;;8.35;1.20;;;28.90;92.00;;;;;;5010808;28;20052;-40
2022/08/01 09:04:11;;;;;;;9.77;1.10;;;29.80;84.70;;;;;;5010273;28;20046;-40
2022/08/01 09:06:38;;;;;;;6.18;0.63;;;31.00;81.20;;;;;;5010090;28;20095;-40
2022/08/01 09:09:05;;;;;;;6.28;0.68;;;31.30;73.10;;;;;;5010126;28;20119;-39
2022/08/01 09:11:30;;;;;;;7.60;0.98;;;31.90;74.70;;;;;;5009758;28;20045;-38
2022/08/01 09:14:11;;;;;;;6.07;0.88;;;32.60;73.20;;;;;;5009368;28;20050;-38
2022/08/01 09:16:40;;;;;;;8.75;1.38;;;33.10;69.80;;;;;;5009202;28;20097;-38
2022/08/01 09:19:09;;;;;;;9.10;1.02;;;33.20;68.80;;;;;;5010142;28;20681;-41
2022/08/01 09:21:34;;;;;;;5.90;0.93;;;32.80;63.80;;;;;;5010210;28;20262;-45
2022/08/01 09:24:05;;;;;;;6.90;1.40;;;32.70;64.60;;;;;;5010955;28;20500;-50
2022/08/01 09:26:35;;;;;;;5.97;0.73;;;32.80;66.10;;;;;;5015701;28;20103;-47
2022/08/01 09:29:05;;;;;;;6.25;0.93;;;32.90;62.30;;;;;;5015571;28;20543;-47
2022/08/01 09:31:41;;;;;;;7.72;1.30;;;32.80;63.20;;;;;;5015932;28;20050;-45
2022/08/01 09:34:09;;;;;;;6.47;0.85;;;32.90;62.40;;;;;;5015293;28;20076;-46
2022/08/01 09:36:58;;;;;;;8.35;0.90;;;32.50;60.20;;;;;;5015588;28;20045;-46
2022/08/01 09:39:37;;;;;;;4.38;0.60;;;32.50;59.70;;;;;;5015551;28;20092;-48
2022/08/01 09:42:20;;;;;;;4.47;0.80;;;31.80;60.40;;;;;;5015355;28;20041;-47
2022/08/01 09:44:46;;;;;;;8.55;0.80;;;31.20;63.40;;;;;;5013847;28;20373;-46
2022/08/01 09:47:12;;;;;;;8.15;1.00;;;30.80;62.50;;;;;;5014995;28;20046;-46
2022/08/01 09:49:40;;;;;;;6.57;0.85;;;29.90;62.10;;;;;;5014824;28;20048;-46
2022/08/01 09:52:16;;;;;;;10.00;1.38;;;29.10;64.30;;;;;;5015316;28;20056;-45
2022/08/01 09:54:50;;;;;;;9.95;0.88;;;28.60;66.70;;;;;;5015346;28;20057;-47
2022/08/01 09:57:19;;;;;;;5.63;1.00;;;29.00;67.40;;;;;;5014849;28;20045;-47
2022/08/01 09:59:50;;;;;;;7.47;1.42;;;29.30;68.30;;;;;;5015153;28;20120;-46
2022/08/01 10:02:37;;;;;;;7.80;0.68;;;29.60;67.50;;;;;;5012081;28;20443;-39
2022/08/01 10:05:05;;;;;;;4.40;0.65;;;29.90;64.60;;;;;;5009550;28;20038;-46
2022/08/01 10:07:31;;;;;;;6.32;0.63;;;29.50;65.70;;;;;;5009497;28;20438;-45
2022/08/01 10:10:12;;;;;;;14.73;1.95;;;28.90;65.70;;;;;;5009817;28;20041;-44
2022/08/01 10:12:40;;;;;;;7.03;1.33;;;28.60;68.10;;;;;;5009650;28;20057;-43
2022/08/01 10:15:07;;;;;;;6.07;0.60;;;29.00;67.80;;;;;;5008804;28;20484;-45
2022/08/01 10:17:34;;;;;;;8.07;0.80;;;29.80;65.20;;;;;;5009035;28;20130;-44
2022/08/01 10:20:02;;;;;;;7.57;1.17;;;30.10;63.80;;;;;;5009132;28;20046;-44
2022/08/01 10:22:31;;;;;;;8.40;1.10;;;29.50;62.90;;;;;;5009404;28;20705;-44
2022/08/01 10:25:01;;;;;;;7.05;0.85;;;28.90;64.00;;;;;;5009337;28;20491;-43
2022/08/01 10:27:32;;;;;;;5.78;0.90;;;28.70;64.40;;;;;;5009034;28;20046;-43
2022/08/01 10:30:07;;;;;;;6.93;0.80;;;29.00;63.80;;;;;;5009159;28;20546;-43
2022/08/01 10:32:35;;;;;;;6.80;0.98;;;29.00;63.50;;;;;;5009167;28;20092;-41
2022/08/01 10:35:01;;;;;;;4.82;0.75;;;28.90;63.40;;;;;;5004294;28;20079;-59
2022/08/01 10:37:27;;;;;;;5.85;0.50;;;28.30;63.40;;;;;;5002536;28;20585;-40
2022/08/01 10:39:54;;;;;;;5.03;0.40;;;28.10;65.70;;;;;;5005025;28;20042;-47
2022/08/01 10:42:20;;;;;;;4.65;0.75;;;28.80;67.50;;;;;;5007777;28;20484;-46
2022/08/01 10:44:47;;;;;;;6.63;0.63;;;29.00;64.10;;;;;;5005645;28;20056;-48
2022/08/01 10:47:20;;;;;;;6.43;0.60;;;28.60;63.40;;;;;;5007122;28;20092;-52
2022/08/01 10:49:58;;;;;;;5.15;1.02;;;28.30;64.10;;;;;;5007118;28;20475;-44
2022/08/01 10:52:24;;;;;;;5.38;0.50;;;28.40;62.90;;;;;;5007225;28;20041;-49
2022/08/01 10:55:04;;;;;;;6.45;0.75;;;28.20;63.40;;;;;;5006839;28;20475;-53
2022/08/01 10:57:46;;;;;;;3.92;0.30;;;28.00;65.10;;;;;;5006246;28;20383;-50
2022/08/01 11:00:20;;;;;;;8.75;0.73;;;27.90;64.20;;;;;;5006421;28;20045;-56
2022/08/01 11:03:32;;;;;;;6.68;0.52;;;27.70;64.70;;;;;;5008109;28;20061;-57
2022/08/01 11:05:57;;;;;;;4.17;0.73;;;27.10;66.10;;;;;;5001083;28;20117;-48
2022/08/01 11:08:23;;;;;;;5.32;0.55;;;26.60;67.20;;;;;;5006136;28;20049;-44
2022/08/01 11:11:01;;;;;;;8.82;0.50;;;26.10;68.30;;;;;;5006493;28;20060;-40
2022/08/01 11:13:58;;;;;;;6.38;0.95;;;25.70;68.90;;;;;;5007095;28;20085;-41
2022/08/01 11:16:35;;;;;;;6.50;0.35;;;25.50;71.10;;;;;;5006460;28;20092;-41
2022/08/01 11:19:01;;;;;;;3.95;0.50;;;25.40;70.80;;;;;;5006524;28;20042;-46
2022/08/01 11:21:52;;;;;;;4.60;0.60;;;25.20;71.00;;;;;;5005651;28;20050;-44
2022/08/01 11:24:46;;;;;;;6.65;0.70;;;25.00;72.00;;;;;;5007143;28;20385;-44
2022/08/01 11:27:30;;;;;;;8.82;0.82;;;25.00;70.80;;;;;;5007828;28;20041;-44
2022/08/01 11:30:11;;;;;;;5.47;1.70;;;24.90;70.80;;;;;;5005686;28;20065;-43
2022/08/01 11:32:51;;;;;;;5.07;0.70;;;24.50;71.80;;;;;;5007468;28;20512;-44
2022/08/01 11:35:19;;;;;;;3.33;0.40;;;24.30;73.30;;;;;;5005786;28;20054;-43
2022/08/01 11:37:45;;;;;;;8.02;0.90;;;24.20;73.20;;;;;;5007095;28;20045;-44
2022/08/01 11:40:26;;;;;;;5.63;0.40;;;24.20;74.70;;;;;;5006915;28;20096;-44
2022/08/01 11:43:13;;;;;;;4.90;0.63;;;24.40;75.10;;;;;;5007575;28;20069;-45
2022/08/01 11:45:56;;;;;;;3.78;0.38;;;24.30;73.40;;;;;;5007534;28;20048;-44
2022/08/01 11:48:27;;;;;;;4.57;0.90;;;24.10;71.90;;;;;;5007706;28;20040;-44
2022/08/01 11:50:54;;;;;;;4.55;0.60;;;24.00;72.90;;;;;;5007550;28;20073;-46
2022/08/01 11:53:21;;;;;;;4.38;0.85;;;24.00;73.60;;;;;;5007394;28;20038;-45
2022/08/01 11:55:52;;;;;;;3.53;0.47;;;24.00;73.30;;;;;;5007203;28;20041;-44
2022/08/01 11:58:25;;;;;;;4.20;0.63;;;24.00;74.30;;;;;;5006952;28;20160;-44
2022/08/01 12:00:53;;;;;;;8.07;0.60;;;24.10;74.70;;;;;;5007502;28;20334;-45
2022/08/01 12:03:30;;;;;;;5.07;0.40;;;24.20;74.60;;;;;;5007185;28;20157;-44
2022/08/01 12:05:57;;;;;;;5.38;0.40;;;24.40;73.60;;;;;;5007598;28;20072;-44
2022/08/01 12:08:33;;;;;;;3.65;0.68;;;24.50;74.30;;;;;;5006725;28;20045;-44
2022/08/01 12:11:00;;;;;;;6.85;0.80;;;24.50;73.70;;;;;;5006911;28;20139;-44
2022/08/01 12:13:26;;;;;;;5.70;0.85;;;24.30;72.10;;;;;;5006919;28;20189;-46
2022/08/01 12:15:52;;;;;;;6.03;0.60;;;24.20;74.00;;;;;;5006111;28;20060;-44
2022/08/01 12:18:18;;;;;;;5.05;0.70;;;24.20;74.40;;;;;;5006895;28;20077;-44
2022/08/01 12:20:45;;;;;;;5.85;0.45;;;24.20;74.20;;;;;;5006621;28;20567;-44
2022/08/01 12:23:15;;;;;;;5.00;0.57;;;24.20;74.10;;;;;;5006837;28;20125;-43
2022/08/01 12:25:45;;;;;;;3.65;0.30;;;24.30;73.70;;;;;;5006782;28;20049;-44
2022/08/01 12:28:13;;;;;;;5.65;0.40;;;24.30;74.30;;;;;;5007200;28;20034;-44
2022/08/01 12:30:39;;;;;;;3.55;0.50;;;24.20;74.50;;;;;;5006994;28;20046;-44
2022/08/01 12:33:10;;;;;;;7.20;0.60;;;24.20;75.30;;;;;;5006976;28;20492;-44
2022/08/01 12:35:37;;;;;;;5.75;0.60;;;24.10;75.00;;;;;;5006769;28;20045;-45
2022/08/01 12:38:14;;;;;;;4.57;0.50;;;24.00;74.30;;;;;;5006248;28;20038;-45
2022/08/01 12:40:46;;;;;;;8.13;0.77;;;24.00;75.00;;;;;;5007021;28;20041;-41
2022/08/01 12:43:16;;;;;;;11.50;1.13;;;24.00;74.80;;;;;;5007313;28;20120;-42
2022/08/01 12:45:44;;;;;;;4.20;0.47;;;24.10;77.00;;;;;;5007926;28;20095;-42
2022/08/01 12:48:12;;;;;;;3.55;0.35;;;24.10;76.20;;;;;;5007674;28;20081;-42